createdAt,value
2022-09-02T00:05:00.644Z,39.46
2022-09-02T00:10:03.464Z,39.37
2022-09-02T00:15:08.701Z,39.49
2022-09-02T00:20:11.661Z,39.70
2022-09-02T00:25:14.665Z,39.58
2022-09-02T00:30:19.173Z,39.76
2022-09-02T00:35:22.049Z,39.95
2022-09-02T00:40:25.542Z,39.95
2022-09-02T00:45:29.791Z,40.02
2022-09-02T00:50:35.478Z,39.93
2022-09-02T00:55:41.513Z,39.98
2022-09-02T01:00:46.524Z,39.91
2022-09-02T01:05:50.813Z,39.94
2022-09-02T01:10:55.698Z,39.96
2022-09-02T01:16:03.484Z,40.04
2022-09-02T01:21:06.488Z,40.08
2022-09-02T01:26:11.595Z,39.90
2022-09-02T01:31:14.413Z,40.09
2022-09-02T01:36:18.145Z,40.33
2022-09-02T01:41:22.189Z,40.23
2022-09-02T01:46:25.553Z,40.30
2022-09-02T01:51:28.398Z,40.29
2022-09-02T01:56:33.029Z,40.41
2022-09-02T02:01:37.479Z,40.39
2022-09-02T02:06:41.218Z,40.57
2022-09-02T02:11:45.786Z,40.52
2022-09-02T02:16:51.204Z,40.43
2022-09-02T02:21:54.182Z,40.58
2022-09-02T02:26:58.301Z,40.63
2022-09-02T02:32:01.274Z,40.60
2022-09-02T02:37:04.241Z,40.50
2022-09-02T02:42:08.833Z,40.67
2022-09-02T02:47:11.721Z,40.85
2022-09-02T02:52:16.257Z,40.90
2022-09-02T02:57:20.541Z,40.79
2022-09-02T03:02:23.487Z,40.76
2022-09-02T03:07:26.418Z,40.77
2022-09-02T03:12:33.066Z,40.89
2022-09-02T03:17:36.680Z,40.57
2022-09-02T03:22:40.142Z,40.84
2022-09-02T03:27:46.066Z,40.97
2022-09-02T03:32:50.816Z,40.93
2022-09-02T03:37:53.936Z,40.64
2022-09-02T03:43:02.252Z,40.69
2022-09-02T03:48:06.196Z,40.72
2022-09-02T03:53:18.137Z,40.88
2022-09-02T03:58:25.238Z,40.68
2022-09-02T04:03:29.490Z,40.59
2022-09-02T04:08:32.483Z,40.74
2022-09-02T04:13:38.874Z,40.61
2022-09-02T04:18:41.834Z,40.44
2022-09-02T04:23:47.253Z,40.45
2022-09-02T04:28:51.679Z,40.47
2022-09-02T04:33:54.808Z,40.35
2022-09-02T04:38:58.239Z,40.50
2022-09-02T04:44:06.887Z,40.29
2022-09-02T04:49:13.562Z,40.46
2022-09-02T04:54:18.809Z,40.13
2022-09-02T04:59:27.025Z,40.27
2022-09-02T05:04:37.773Z,40.21
2022-09-02T05:09:45.328Z,40.74
2022-09-02T05:14:50.869Z,40.78
2022-09-02T05:19:55.944Z,41.04
2022-09-02T05:24:58.781Z,41.18
2022-09-02T05:30:05.779Z,41.36
2022-09-02T05:35:10.741Z,41.31
2022-09-02T05:40:14.962Z,41.35
2022-09-02T05:45:21.105Z,41.31
2022-09-02T05:50:23.928Z,41.26
2022-09-02T05:55:27.133Z,41.52
2022-09-02T06:00:31.333Z,41.24
2022-09-02T06:05:38.239Z,41.30
2022-09-02T06:10:47.767Z,41.20
2022-09-02T06:15:57.751Z,41.24
2022-09-02T06:21:04.198Z,41.28
2022-09-02T06:26:11.615Z,41.27
2022-09-02T06:31:17.314Z,41.24
2022-09-02T06:36:21.113Z,41.03
2022-09-02T06:41:26.702Z,41.02
2022-09-02T06:46:32.809Z,41.08
2022-09-02T06:51:39.218Z,40.90
2022-09-02T06:56:48.589Z,40.94
2022-09-02T07:01:55.240Z,40.99
2022-09-02T07:06:59.636Z,40.85
2022-09-02T07:12:07.124Z,40.34
2022-09-02T07:17:17.574Z,40.51
2022-09-02T07:22:24.097Z,40.40
2022-09-02T07:27:27.742Z,40.27
2022-09-02T07:32:33.918Z,39.19
2022-09-02T07:37:37.192Z,39.33
2022-09-02T07:42:42.359Z,38.22
2022-09-02T07:47:46.781Z,38.63
2022-09-02T07:52:51.420Z,38.60
2022-09-02T07:57:55.437Z,38.52
2022-09-02T08:03:00.998Z,38.40
2022-09-02T08:08:09.145Z,38.52
2022-09-02T08:13:11.945Z,38.33
2022-09-02T08:18:22.191Z,38.15
2022-09-02T08:23:36.707Z,38.66
2022-09-02T08:28:40.105Z,37.99
2022-09-02T08:33:44.734Z,38.87
2022-09-02T08:38:47.423Z,38.42
2022-09-02T08:43:50.730Z,38.60
2022-09-02T08:48:56.880Z,38.84
2022-09-02T08:54:02.007Z,38.05
2022-09-02T08:59:06.273Z,37.16
2022-09-02T09:04:17.498Z,37.07
2022-09-02T09:09:23.125Z,36.71
2022-09-02T09:14:27.750Z,36.92
2022-09-02T09:19:37.361Z,38.20
2022-09-02T09:24:41.218Z,38.77
2022-09-02T09:29:44.744Z,38.70
2022-09-02T09:35:01.645Z,37.65
2022-09-02T09:40:27.653Z,38.01
2022-09-02T09:45:33.291Z,37.86
2022-09-02T09:50:37.436Z,37.90
2022-09-02T09:55:51.466Z,37.57
2022-09-02T10:01:00.659Z,37.24
2022-09-02T10:06:19.965Z,37.44
2022-09-02T10:11:24.930Z,37.60
2022-09-02T10:16:35.450Z,37.18
2022-09-02T10:22:02.983Z,38.04
2022-09-02T10:27:08.983Z,39.64
2022-09-02T10:32:21.351Z,40.23
2022-09-02T10:37:26.347Z,40.14
2022-09-02T10:42:32.480Z,40.21
2022-09-02T10:47:37.289Z,39.97
2022-09-02T10:52:51.107Z,40.02
2022-09-02T10:57:55.548Z,39.75
2022-09-02T11:03:03.371Z,40.06
2022-09-02T11:08:10.452Z,39.30
2022-09-02T11:13:15.683Z,38.91
2022-09-02T11:18:20.195Z,39.01
2022-09-02T11:23:35.912Z,38.79
2022-09-02T11:28:40.734Z,39.50
2022-09-02T11:33:49.382Z,39.60
2022-09-02T11:38:55.011Z,39.81
2022-09-02T11:43:59.581Z,39.97
2022-09-02T11:49:43.832Z,40.10
2022-09-02T11:54:48.854Z,39.99
2022-09-02T12:00:10.750Z,39.93
2022-09-02T12:05:45.181Z,40.13
2022-09-02T12:11:02.143Z,40.19
2022-09-02T12:16:36.563Z,39.87
2022-09-02T12:22:21.739Z,39.11
2022-09-02T12:27:30.960Z,38.07
2022-09-02T12:33:05.181Z,37.80
2022-09-02T12:38:32.777Z,38.02
2022-09-02T12:43:41.644Z,37.68
2022-09-02T12:48:48.938Z,38.23
2022-09-02T12:53:52.001Z,38.22
2022-09-02T12:59:01.691Z,37.79
2022-09-02T13:04:16.415Z,37.55
2022-09-02T13:09:28.154Z,38.77
2022-09-02T13:15:04.168Z,39.36
2022-09-02T13:20:42.441Z,39.31
2022-09-02T13:25:59.026Z,38.20
2022-09-02T13:31:16.994Z,37.93
2022-09-02T13:36:24.145Z,37.68
2022-09-02T13:41:32.844Z,37.43
2022-09-02T13:46:46.298Z,37.22
2022-09-02T13:51:51.381Z,36.98
2022-09-02T13:56:54.276Z,37.00
2022-09-02T14:01:58.433Z,36.83
2022-09-02T14:07:01.324Z,36.54
2022-09-02T14:12:04.400Z,37.09
2022-09-02T14:17:22.482Z,36.58
2022-09-02T14:22:27.431Z,37.02
2022-09-02T14:27:30.219Z,36.79
2022-09-02T14:32:36.099Z,37.27
2022-09-02T14:37:49.650Z,37.91
2022-09-02T14:42:57.491Z,38.22
2022-09-02T14:48:03.723Z,38.24
2022-09-02T14:53:11.807Z,38.00
2022-09-02T14:58:14.682Z,37.90
2022-09-02T15:03:22.070Z,37.67
2022-09-02T15:08:25.039Z,37.29
2022-09-02T15:13:29.525Z,37.15
2022-09-02T15:18:34.520Z,37.61
2022-09-02T15:23:41.151Z,37.37
2022-09-02T15:28:45.297Z,37.15
2022-09-02T15:33:52.259Z,37.02
2022-09-02T15:38:55.315Z,36.78
2022-09-02T15:43:59.674Z,35.65
2022-09-02T15:49:05.082Z,35.13
2022-09-02T15:54:08.667Z,36.34
2022-09-02T15:59:12.416Z,37.51
2022-09-02T16:04:16.489Z,37.77
2022-09-02T16:09:19.512Z,37.94
2022-09-02T16:14:23.407Z,37.61
2022-09-02T16:19:30.242Z,38.20
2022-09-02T16:24:33.281Z,36.96
2022-09-02T16:29:37.189Z,36.30
2022-09-02T16:34:41.449Z,35.84
2022-09-02T16:39:44.243Z,35.55
2022-09-02T16:44:46.960Z,35.52
2022-09-02T16:49:55.699Z,35.58
2022-09-02T16:54:58.478Z,35.71
2022-09-02T17:00:01.331Z,35.67
2022-09-02T17:05:07.876Z,35.56
2022-09-02T17:10:11.344Z,35.32
2022-09-02T17:15:14.510Z,35.42
2022-09-02T17:20:18.827Z,36.11
2022-09-02T17:25:21.547Z,35.37
2022-09-02T17:30:24.365Z,35.56
2022-09-02T17:35:28.833Z,35.64
2022-09-02T17:40:49.224Z,35.49
2022-09-02T17:45:54.900Z,35.82
2022-09-02T17:50:59.025Z,35.75
2022-09-02T17:56:04.410Z,35.65
2022-09-02T18:01:08.920Z,35.79
2022-09-02T18:06:15.326Z,35.64
2022-09-02T18:11:18.057Z,35.84
2022-09-02T18:16:33.300Z,35.10
2022-09-02T18:21:42.731Z,35.35
2022-09-02T18:26:52.274Z,35.90
2022-09-02T18:31:57.604Z,36.13
2022-09-02T18:37:07.506Z,36.23
2022-09-02T18:42:18.943Z,36.45
2022-09-02T18:47:22.693Z,36.73
2022-09-02T18:52:28.196Z,36.56
2022-09-02T18:57:33.736Z,36.92
2022-09-02T19:02:38.481Z,36.99
2022-09-02T19:08:00.317Z,37.18
2022-09-02T19:13:03.129Z,36.49
2022-09-02T19:18:06.154Z,37.06
2022-09-02T19:23:12.042Z,36.92
2022-09-02T19:28:15.173Z,37.30
2022-09-02T19:33:18.124Z,37.33
2022-09-02T19:38:22.591Z,37.27
2022-09-02T19:43:25.341Z,37.32
2022-09-02T19:48:28.063Z,37.29
2022-09-02T19:53:32.244Z,37.30
2022-09-02T19:58:35.633Z,37.36
2022-09-02T20:03:40.249Z,37.51
2022-09-02T20:08:44.328Z,37.48
2022-09-02T20:13:49.168Z,37.47
2022-09-02T20:18:52.994Z,37.28
2022-09-02T20:23:58.581Z,37.39
2022-09-02T20:29:09.686Z,37.42
2022-09-02T20:34:18.465Z,37.37
2022-09-02T20:39:32.914Z,37.24
2022-09-02T20:44:43.196Z,36.50
2022-09-02T20:50:02.640Z,37.29
2022-09-02T20:55:09.615Z,37.11
2022-09-02T21:00:13.503Z,37.24
2022-09-02T21:05:22.425Z,37.35
2022-09-02T21:10:32.796Z,37.41
2022-09-02T21:15:39.670Z,37.20
2022-09-02T21:20:47.162Z,37.34
2022-09-02T21:25:55.797Z,37.17
2022-09-02T21:31:03.165Z,37.44
2022-09-02T21:36:06.364Z,37.34
2022-09-02T21:41:29.954Z,37.33
2022-09-02T21:46:35.283Z,37.30
2022-09-02T21:51:39.426Z,37.40
2022-09-02T21:56:50.800Z,37.41
2022-09-02T22:01:55.843Z,37.27
2022-09-02T22:07:00.970Z,37.50
2022-09-02T22:12:06.890Z,37.37
2022-09-02T22:17:14.416Z,37.29
2022-09-02T22:22:18.902Z,37.50
2022-09-02T22:27:25.474Z,37.49
2022-09-02T22:32:31.864Z,37.56
2022-09-02T22:37:40.295Z,37.63
2022-09-02T22:42:44.348Z,37.60
2022-09-02T22:48:06.895Z,37.50
2022-09-02T22:53:11.096Z,37.66
2022-09-02T22:58:28.974Z,37.43
2022-09-02T23:03:37.101Z,37.71
2022-09-02T23:08:40.282Z,37.49
2022-09-02T23:13:55.811Z,37.53
2022-09-02T23:19:06.268Z,37.65
2022-09-02T23:24:13.342Z,37.69
2022-09-02T23:29:18.583Z,37.46
2022-09-02T23:34:30.462Z,37.28
2022-09-02T23:39:50.037Z,37.47
2022-09-02T23:44:55.057Z,37.68
2022-09-02T23:50:02.189Z,37.95
2022-09-02T23:55:08.977Z,38.12
